sensor_id;sensor_type;location;lat;lon;timestamp;pressure;altitude;pressure_sealevel;temperature;humidity
68141;BME280;54941;52.220;104.306;2022-09-14T00:01:11;97333.41;;;8.76;94.46
68141;BME280;54941;52.220;104.306;2022-09-14T00:03:58;97323.75;;;8.78;93.95
68141;BME280;54941;52.220;104.306;2022-09-14T00:06:43;97317.50;;;8.72;93.80
68141;BME280;54941;52.220;104.306;2022-09-14T00:09:29;97325.19;;;8.80;91.49
68141;BME280;54941;52.220;104.306;2022-09-14T00:12:14;97327.72;;;8.89;90.25
68141;BME280;54941;52.220;104.306;2022-09-14T00:14:59;97321.88;;;8.95;90.52
68141;BME280;54941;52.220;104.306;2022-09-14T00:17:45;97327.31;;;9.00;92.14
68141;BME280;54941;52.220;104.306;2022-09-14T00:20:30;97329.50;;;9.11;91.79
68141;BME280;54941;52.220;104.306;2022-09-14T00:23:15;97325.16;;;9.11;90.49
68141;BME280;54941;52.220;104.306;2022-09-14T00:26:04;97325.16;;;9.11;92.60
68141;BME280;54941;52.220;104.306;2022-09-14T00:28:50;97324.19;;;9.12;92.90
68141;BME280;54941;52.220;104.306;2022-09-14T00:31:37;97317.63;;;9.24;90.84
68141;BME280;54941;52.220;104.306;2022-09-14T00:34:23;97309.47;;;9.21;91.62
68141;BME280;54941;52.220;104.306;2022-09-14T00:37:08;97306.19;;;9.12;92.30
68141;BME280;54941;52.220;104.306;2022-09-14T00:39:54;97301.69;;;9.29;89.47
68141;BME280;54941;52.220;104.306;2022-09-14T00:42:39;97302.22;;;9.24;89.81
68141;BME280;54941;52.220;104.306;2022-09-14T00:45:26;97296.16;;;9.17;87.90
68141;BME280;54941;52.220;104.306;2022-09-14T00:48:11;97289.53;;;9.23;88.42
68141;BME280;54941;52.220;104.306;2022-09-14T00:50:57;97298.22;;;9.22;87.95
68141;BME280;54941;52.220;104.306;2022-09-14T00:53:42;97292.28;;;9.21;88.34
68141;BME280;54941;52.220;104.306;2022-09-14T00:56:27;97291.16;;;9.39;88.15
68141;BME280;54941;52.220;104.306;2022-09-14T00:59:16;97295.09;;;9.49;86.56
68141;BME280;54941;52.220;104.306;2022-09-14T01:02:03;97296.59;;;9.58;88.35
68141;BME280;54941;52.220;104.306;2022-09-14T01:04:49;97291.84;;;9.70;88.44
68141;BME280;54941;52.220;104.306;2022-09-14T01:11:15;97296.25;;;9.61;89.60
68141;BME280;54941;52.220;104.306;2022-09-14T01:14:07;97298.03;;;9.61;89.51
68141;BME280;54941;52.220;104.306;2022-09-14T01:17:00;97296.44;;;9.60;88.82
68141;BME280;54941;52.220;104.306;2022-09-14T01:20:12;97296.69;;;9.65;86.91
68141;BME280;54941;52.220;104.306;2022-09-14T01:23:05;97296.63;;;9.73;86.78
68141;BME280;54941;52.220;104.306;2022-09-14T01:26:06;97291.00;;;9.55;84.85
68141;BME280;54941;52.220;104.306;2022-09-14T01:28:56;97296.06;;;9.48;86.11
68141;BME280;54941;52.220;104.306;2022-09-14T01:31:48;97291.94;;;9.76;86.19
68141;BME280;54941;52.220;104.306;2022-09-14T01:34:38;97291.47;;;9.73;84.65
68141;BME280;54941;52.220;104.306;2022-09-14T01:37:30;97291.25;;;9.83;83.99
68141;BME280;54941;52.220;104.306;2022-09-14T01:40:21;97287.13;;;9.88;83.18
68141;BME280;54941;52.220;104.306;2022-09-14T01:43:10;97292.38;;;10.09;83.31
68141;BME280;54941;52.220;104.306;2022-09-14T01:45:59;97295.94;;;10.08;85.12
68141;BME280;54941;52.220;104.306;2022-09-14T01:48:51;97278.38;;;9.83;82.38
68141;BME280;54941;52.220;104.306;2022-09-14T01:51:38;97293.16;;;10.10;81.39
68141;BME280;54941;52.220;104.306;2022-09-14T01:54:26;97285.28;;;9.97;82.92
68141;BME280;54941;52.220;104.306;2022-09-14T01:57:17;97285.38;;;9.89;84.29
68141;BME280;54941;52.220;104.306;2022-09-14T02:00:07;97282.88;;;10.10;84.90
68141;BME280;54941;52.220;104.306;2022-09-14T02:02:58;97281.72;;;9.98;85.96
68141;BME280;54941;52.220;104.306;2022-09-14T02:05:49;97284.41;;;9.90;86.80
68141;BME280;54941;52.220;104.306;2022-09-14T02:08:38;97283.75;;;9.88;86.27
68141;BME280;54941;52.220;104.306;2022-09-14T02:11:24;97289.28;;;9.85;86.28
68141;BME280;54941;52.220;104.306;2022-09-14T02:14:09;97298.16;;;9.82;85.84
68141;BME280;54941;52.220;104.306;2022-09-14T02:16:54;97298.69;;;9.92;86.15
68141;BME280;54941;52.220;104.306;2022-09-14T02:19:43;97295.94;;;9.94;85.73
68141;BME280;54941;52.220;104.306;2022-09-14T02:22:30;97297.28;;;10.04;86.55
68141;BME280;54941;52.220;104.306;2022-09-14T02:25:15;97290.00;;;9.93;87.61
68141;BME280;54941;52.220;104.306;2022-09-14T02:28:00;97295.13;;;9.93;88.31
68141;BME280;54941;52.220;104.306;2022-09-14T02:30:50;97291.56;;;9.94;89.48
68141;BME280;54941;52.220;104.306;2022-09-14T02:33:42;97293.91;;;10.04;88.27
68141;BME280;54941;52.220;104.306;2022-09-14T02:36:39;97287.50;;;10.00;89.19
68141;BME280;54941;52.220;104.306;2022-09-14T02:39:35;97293.00;;;9.82;88.83
68141;BME280;54941;52.220;104.306;2022-09-14T02:42:25;97293.34;;;9.64;88.60
68141;BME280;54941;52.220;104.306;2022-09-14T02:45:20;97286.69;;;9.70;88.36
68141;BME280;54941;52.220;104.306;2022-09-14T02:48:11;97288.91;;;9.73;89.25
68141;BME280;54941;52.220;104.306;2022-09-14T02:51:02;97282.72;;;9.82;89.89
68141;BME280;54941;52.220;104.306;2022-09-14T02:53:55;97290.00;;;9.93;88.00
68141;BME280;54941;52.220;104.306;2022-09-14T02:56:42;97286.97;;;9.90;87.04
68141;BME280;54941;52.220;104.306;2022-09-14T02:59:35;97276.84;;;10.03;87.28
68141;BME280;54941;52.220;104.306;2022-09-14T03:02:20;97273.22;;;9.97;88.20
68141;BME280;54941;52.220;104.306;2022-09-14T03:05:05;97266.97;;;10.06;88.98
68141;BME280;54941;52.220;104.306;2022-09-14T03:07:50;97256.91;;;10.41;88.54
68141;BME280;54941;52.220;104.306;2022-09-14T03:10:37;97259.22;;;10.36;86.98
68141;BME280;54941;52.220;104.306;2022-09-14T03:13:22;97247.34;;;10.35;84.83
68141;BME280;54941;52.220;104.306;2022-09-14T03:16:09;97256.75;;;10.27;86.92
68141;BME280;54941;52.220;104.306;2022-09-14T03:18:54;97242.69;;;10.45;86.72
68141;BME280;54941;52.220;104.306;2022-09-14T03:21:39;97247.06;;;10.65;87.85
68141;BME280;54941;52.220;104.306;2022-09-14T03:24:24;97240.97;;;10.73;86.75
68141;BME280;54941;52.220;104.306;2022-09-14T03:27:10;97243.94;;;10.70;85.00
68141;BME280;54941;52.220;104.306;2022-09-14T03:29:55;97229.38;;;10.62;84.48
68141;BME280;54941;52.220;104.306;2022-09-14T03:32:40;97227.84;;;10.89;84.34
68141;BME280;54941;52.220;104.306;2022-09-14T03:35:26;97225.91;;;10.98;85.89
68141;BME280;54941;52.220;104.306;2022-09-14T03:38:11;97224.88;;;11.13;83.38
68141;BME280;54941;52.220;104.306;2022-09-14T03:40:56;97221.28;;;11.42;83.95
68141;BME280;54941;52.220;104.306;2022-09-14T03:43:43;97213.63;;;11.21;83.74
68141;BME280;54941;52.220;104.306;2022-09-14T03:46:28;97216.47;;;11.05;82.60
68141;BME280;54941;52.220;104.306;2022-09-14T03:49:13;97206.22;;;11.11;82.03
68141;BME280;54941;52.220;104.306;2022-09-14T03:51:58;97212.63;;;11.22;82.04
68141;BME280;54941;52.220;104.306;2022-09-14T03:54:43;97197.19;;;11.29;81.04
68141;BME280;54941;52.220;104.306;2022-09-14T03:57:28;97191.84;;;11.64;79.76
68141;BME280;54941;52.220;104.306;2022-09-14T04:00:17;97193.97;;;11.82;79.67
68141;BME280;54941;52.220;104.306;2022-09-14T04:03:03;97183.31;;;11.64;78.59
68141;BME280;54941;52.220;104.306;2022-09-14T04:05:53;97181.16;;;11.67;78.68
68141;BME280;54941;52.220;104.306;2022-09-14T04:08:40;97183.53;;;11.69;78.73
68141;BME280;54941;52.220;104.306;2022-09-14T04:11:25;97182.41;;;11.44;79.39
68141;BME280;54941;52.220;104.306;2022-09-14T04:14:10;97176.28;;;11.51;79.51
68141;BME280;54941;52.220;104.306;2022-09-14T04:16:56;97176.88;;;11.53;80.88
68141;BME280;54941;52.220;104.306;2022-09-14T04:19:41;97169.66;;;11.42;79.85
68141;BME280;54941;52.220;104.306;2022-09-14T04:22:26;97172.44;;;11.75;79.92
68141;BME280;54941;52.220;104.306;2022-09-14T04:25:11;97160.19;;;11.84;79.70
68141;BME280;54941;52.220;104.306;2022-09-14T04:27:56;97153.22;;;11.84;79.42
68141;BME280;54941;52.220;104.306;2022-09-14T04:30:41;97156.06;;;11.96;80.08
68141;BME280;54941;52.220;104.306;2022-09-14T04:33:30;97161.09;;;11.69;80.47
68141;BME280;54941;52.220;104.306;2022-09-14T04:36:16;97157.81;;;11.82;79.67
68141;BME280;54941;52.220;104.306;2022-09-14T04:39:02;97149.28;;;11.54;80.92
68141;BME280;54941;52.220;104.306;2022-09-14T04:41:47;97147.59;;;11.67;81.80
68141;BME280;54941;52.220;104.306;2022-09-14T04:44:32;97147.75;;;11.66;80.81
68141;BME280;54941;52.220;104.306;2022-09-14T04:47:17;97134.50;;;11.76;80.36
68141;BME280;54941;52.220;104.306;2022-09-14T04:50:04;97135.72;;;11.80;81.04
68141;BME280;54941;52.220;104.306;2022-09-14T04:52:49;97132.34;;;11.79;80.94
68141;BME280;54941;52.220;104.306;2022-09-14T04:55:34;97121.44;;;11.90;81.36
68141;BME280;54941;52.220;104.306;2022-09-14T04:58:19;97116.09;;;11.92;80.18
68141;BME280;54941;52.220;104.306;2022-09-14T05:01:05;97121.44;;;11.90;79.31
68141;BME280;54941;52.220;104.306;2022-09-14T05:03:50;97121.66;;;11.89;81.33
68141;BME280;54941;52.220;104.306;2022-09-14T05:06:38;97111.72;;;11.92;80.51
68141;BME280;54941;52.220;104.306;2022-09-14T05:09:23;97112.69;;;11.85;80.43
68141;BME280;54941;52.220;104.306;2022-09-14T05:12:08;97108.34;;;11.98;80.35
68141;BME280;54941;52.220;104.306;2022-09-14T05:14:53;97106.34;;;11.87;81.63
68141;BME280;54941;52.220;104.306;2022-09-14T05:17:38;97106.91;;;11.83;80.90
68141;BME280;54941;52.220;104.306;2022-09-14T05:20:23;97105.13;;;11.83;81.58
68141;BME280;54941;52.220;104.306;2022-09-14T05:23:09;97093.22;;;11.82;80.73
68141;BME280;54941;52.220;104.306;2022-09-14T05:25:54;97092.63;;;11.80;81.19
68141;BME280;54941;52.220;104.306;2022-09-14T05:28:39;97085.91;;;11.92;81.49
68141;BME280;54941;52.220;104.306;2022-09-14T05:31:25;97084.13;;;11.99;81.86
68141;BME280;54941;52.220;104.306;2022-09-14T05:34:10;97079.50;;;11.82;82.16
68141;BME280;54941;52.220;104.306;2022-09-14T05:36:55;97074.00;;;12.24;80.10
68141;BME280;54941;52.220;104.306;2022-09-14T05:39:42;97078.56;;;12.09;82.02
68141;BME280;54941;52.220;104.306;2022-09-14T05:42:26;97071.44;;;12.17;81.11
68141;BME280;54941;52.220;104.306;2022-09-14T05:45:11;97070.03;;;12.28;81.79
68141;BME280;54941;52.220;104.306;2022-09-14T05:47:59;97070.25;;;12.27;81.23
68141;BME280;54941;52.220;104.306;2022-09-14T05:50:44;97063.69;;;12.44;81.99
68141;BME280;54941;52.220;104.306;2022-09-14T05:53:29;97068.03;;;12.04;78.89
68141;BME280;54941;52.220;104.306;2022-09-14T05:56:16;97049.28;;;11.76;79.09
68141;BME280;54941;52.220;104.306;2022-09-14T05:59:01;97056.44;;;11.74;80.77
68141;BME280;54941;52.220;104.306;2022-09-14T06:01:46;97056.44;;;11.80;81.61
68141;BME280;54941;52.220;104.306;2022-09-14T06:04:31;97049.25;;;11.69;79.72
68141;BME280;54941;52.220;104.306;2022-09-14T06:07:16;97048.94;;;11.85;80.77
68141;BME280;54941;52.220;104.306;2022-09-14T06:10:00;97053.69;;;11.95;80.18
68141;BME280;54941;52.220;104.306;2022-09-14T06:12:47;97049.34;;;11.95;79.98
68141;BME280;54941;52.220;104.306;2022-09-14T06:15:32;97042.34;;;11.83;80.53
68141;BME280;54941;52.220;104.306;2022-09-14T06:18:17;97046.66;;;11.69;80.28
68141;BME280;54941;52.220;104.306;2022-09-14T06:21:03;97042.16;;;11.84;78.52
68141;BME280;54941;52.220;104.306;2022-09-14T06:23:49;97044.91;;;11.76;79.48
68141;BME280;54941;52.220;104.306;2022-09-14T06:26:34;97047.09;;;11.73;80.60
68141;BME280;54941;52.220;104.306;2022-09-14T06:29:20;97041.72;;;11.67;80.79
68141;BME280;54941;52.220;104.306;2022-09-14T06:32:05;97037.50;;;11.60;81.49
68141;BME280;54941;52.220;104.306;2022-09-14T06:34:50;97025.34;;;11.54;82.25
68141;BME280;54941;52.220;104.306;2022-09-14T06:37:35;97022.06;;;11.80;81.32
68141;BME280;54941;52.220;104.306;2022-09-14T06:40:20;97026.25;;;11.87;81.59
68141;BME280;54941;52.220;104.306;2022-09-14T06:43:05;97015.81;;;11.41;80.04
68141;BME280;54941;52.220;104.306;2022-09-14T06:46:00;97007.47;;;11.46;81.03
68141;BME280;54941;52.220;104.306;2022-09-14T06:48:48;97005.09;;;11.51;81.98
68141;BME280;54941;52.220;104.306;2022-09-14T06:51:34;97000.97;;;11.56;80.22
68141;BME280;54941;52.220;104.306;2022-09-14T06:54:19;97004.78;;;11.80;81.40
68141;BME280;54941;52.220;104.306;2022-09-14T06:57:05;97001.72;;;11.57;79.81
68141;BME280;54941;52.220;104.306;2022-09-14T06:59:50;97002.94;;;11.61;81.14
68141;BME280;54941;52.220;104.306;2022-09-14T07:02:36;96999.41;;;11.75;80.60
68141;BME280;54941;52.220;104.306;2022-09-14T07:05:21;96990.69;;;11.76;79.82
68141;BME280;54941;52.220;104.306;2022-09-14T07:08:06;96996.47;;;11.78;79.88
68141;BME280;54941;52.220;104.306;2022-09-14T07:10:55;96991.03;;;11.60;80.34
68141;BME280;54941;52.220;104.306;2022-09-14T07:13:40;96988.25;;;11.61;79.85
68141;BME280;54941;52.220;104.306;2022-09-14T07:16:25;96980.28;;;11.50;79.56
68141;BME280;54941;52.220;104.306;2022-09-14T07:19:13;96980.88;;;11.45;78.28
68141;BME280;54941;52.220;104.306;2022-09-14T07:21:59;96982.88;;;11.56;79.92
68141;BME280;54941;52.220;104.306;2022-09-14T07:24:44;96973.50;;;11.36;79.85
68141;BME280;54941;52.220;104.306;2022-09-14T07:27:29;96979.47;;;11.43;79.56
68141;BME280;54941;52.220;104.306;2022-09-14T07:30:14;96986.00;;;11.32;78.73
68141;BME280;54941;52.220;104.306;2022-09-14T07:32:59;96974.03;;;11.18;79.35
68141;BME280;54941;52.220;104.306;2022-09-14T07:35:45;96963.66;;;11.05;79.38
68141;BME280;54941;52.220;104.306;2022-09-14T07:38:30;96968.88;;;11.18;79.08
68141;BME280;54941;52.220;104.306;2022-09-14T07:41:15;96955.56;;;11.14;78.50
68141;BME280;54941;52.220;104.306;2022-09-14T07:44:01;96963.84;;;11.03;79.53
68141;BME280;54941;52.220;104.306;2022-09-14T07:46:46;96968.84;;;11.11;78.70
68141;BME280;54941;52.220;104.306;2022-09-14T07:49:31;96970.25;;;11.14;78.60
68141;BME280;54941;52.220;104.306;2022-09-14T07:52:18;96967.09;;;11.18;78.55
68141;BME280;54941;52.220;104.306;2022-09-14T07:55:03;96959.13;;;11.20;78.26
68141;BME280;54941;52.220;104.306;2022-09-14T07:57:48;96949.44;;;11.29;78.10
68141;BME280;54941;52.220;104.306;2022-09-14T08:00:33;96950.59;;;11.13;78.57
68141;BME280;54941;52.220;104.306;2022-09-14T08:03:18;96953.78;;;11.15;79.06
68141;BME280;54941;52.220;104.306;2022-09-14T08:06:05;96952.41;;;11.26;77.66
68141;BME280;54941;52.220;104.306;2022-09-14T08:08:52;96951.63;;;11.25;77.22
68141;BME280;54941;52.220;104.306;2022-09-14T08:11:38;96943.09;;;11.31;78.07
68141;BME280;54941;52.220;104.306;2022-09-14T08:14:22;96944.84;;;11.11;77.35
68141;BME280;54941;52.220;104.306;2022-09-14T08:17:07;96945.47;;;11.19;77.96
68141;BME280;54941;52.220;104.306;2022-09-14T08:19:52;96944.47;;;11.27;78.15
68141;BME280;54941;52.220;104.306;2022-09-14T08:22:37;96945.91;;;11.43;77.65
68141;BME280;54941;52.220;104.306;2022-09-14T08:25:24;96949.09;;;11.45;76.92
68141;BME280;54941;52.220;104.306;2022-09-14T08:28:08;96947.91;;;11.54;76.34
68141;BME280;54941;52.220;104.306;2022-09-14T08:30:53;96944.69;;;11.32;76.70
68141;BME280;54941;52.220;104.306;2022-09-14T08:33:39;96943.72;;;11.40;76.17
68141;BME280;54941;52.220;104.306;2022-09-14T08:36:26;96942.50;;;11.29;76.23
68141;BME280;54941;52.220;104.306;2022-09-14T08:39:13;96941.72;;;11.35;77.01
68141;BME280;54941;52.220;104.306;2022-09-14T08:41:59;96938.56;;;11.33;77.11
68141;BME280;54941;52.220;104.306;2022-09-14T08:44:48;96938.78;;;11.64;77.04
68141;BME280;54941;52.220;104.306;2022-09-14T08:47:34;96934.66;;;11.83;76.56
68141;BME280;54941;52.220;104.306;2022-09-14T08:50:20;96926.72;;;11.71;76.72
68141;BME280;54941;52.220;104.306;2022-09-14T08:53:07;96926.69;;;11.58;77.21
68141;BME280;54941;52.220;104.306;2022-09-14T08:55:55;96926.94;;;11.90;76.67
68141;BME280;54941;52.220;104.306;2022-09-14T08:58:55;96922.53;;;11.90;75.61
68141;BME280;54941;52.220;104.306;2022-09-14T09:01:49;96923.94;;;11.93;77.17
68141;BME280;54941;52.220;104.306;2022-09-14T09:04:48;96921.16;;;11.81;76.67
68141;BME280;54941;52.220;104.306;2022-09-14T09:07:40;96923.34;;;11.71;76.76
68141;BME280;54941;52.220;104.306;2022-09-14T09:10:29;96911.41;;;11.83;76.11
68141;BME280;54941;52.220;104.306;2022-09-14T09:13:18;96913.97;;;11.70;75.89
68141;BME280;54941;52.220;104.306;2022-09-14T09:16:08;96918.94;;;11.52;76.42
68141;BME280;54941;52.220;104.306;2022-09-14T09:18:58;96913.78;;;11.52;77.57
68141;BME280;54941;52.220;104.306;2022-09-14T09:21:47;96913.16;;;11.37;77.26
68141;BME280;54941;52.220;104.306;2022-09-14T09:24:36;96908.16;;;11.35;77.39
68141;BME280;54941;52.220;104.306;2022-09-14T09:27:23;96914.69;;;11.24;78.20
68141;BME280;54941;52.220;104.306;2022-09-14T09:30:11;96918.09;;;11.25;77.42
68141;BME280;54941;52.220;104.306;2022-09-14T09:32:58;96915.69;;;11.23;78.42
68141;BME280;54941;52.220;104.306;2022-09-14T09:35:43;96919.06;;;11.24;78.26
68141;BME280;54941;52.220;104.306;2022-09-14T09:38:28;96917.09;;;11.26;78.33
68141;BME280;54941;52.220;104.306;2022-09-14T09:41:17;96915.91;;;11.29;78.20
68141;BME280;54941;52.220;104.306;2022-09-14T09:44:04;96917.28;;;11.18;78.60
68141;BME280;54941;52.220;104.306;2022-09-14T09:46:52;96917.84;;;11.13;78.85
68141;BME280;54941;52.220;104.306;2022-09-14T09:49:38;96913.88;;;11.11;79.21
68141;BME280;54941;52.220;104.306;2022-09-14T09:52:23;96905.31;;;10.97;79.41
68141;BME280;54941;52.220;104.306;2022-09-14T09:55:17;96910.25;;;10.92;79.38
68141;BME280;54941;52.220;104.306;2022-09-14T09:58:21;96910.81;;;10.81;80.87
68141;BME280;54941;52.220;104.306;2022-09-14T10:01:17;96904.28;;;10.85;80.00
68141;BME280;54941;52.220;104.306;2022-09-14T10:04:08;96905.41;;;10.69;80.16
68141;BME280;54941;52.220;104.306;2022-09-14T10:07:00;96900.41;;;10.68;79.51
68141;BME280;54941;52.220;104.306;2022-09-14T10:09:56;96896.06;;;10.68;78.67
68141;BME280;54941;52.220;104.306;2022-09-14T10:12:45;96903.00;;;10.68;79.31
68141;BME280;54941;52.220;104.306;2022-09-14T10:15:32;96904.41;;;10.64;76.00
68141;BME280;54941;52.220;104.306;2022-09-14T10:18:18;96902.00;;;10.62;75.29
68141;BME280;54941;52.220;104.306;2022-09-14T10:21:06;96897.41;;;10.58;75.04
68141;BME280;54941;52.220;104.306;2022-09-14T10:24:04;96906.50;;;10.54;75.32
68141;BME280;54941;52.220;104.306;2022-09-14T10:26:49;96896.44;;;10.59;74.84
68141;BME280;54941;52.220;104.306;2022-09-14T10:29:40;96902.78;;;10.56;75.24
68141;BME280;54941;52.220;104.306;2022-09-14T10:32:26;96900.91;;;10.44;75.70
68141;BME280;54941;52.220;104.306;2022-09-14T10:35:13;96903.66;;;10.42;76.07
68141;BME280;54941;52.220;104.306;2022-09-14T10:38:07;96898.72;;;10.41;76.06
68141;BME280;54941;52.220;104.306;2022-09-14T10:41:01;96894.94;;;10.37;75.83
68141;BME280;54941;52.220;104.306;2022-09-14T10:44:06;96888.97;;;10.36;76.29
68141;BME280;54941;52.220;104.306;2022-09-14T10:47:09;96888.19;;;10.36;75.88
68141;BME280;54941;52.220;104.306;2022-09-14T10:50:07;96890.34;;;10.32;76.40
68141;BME280;54941;52.220;104.306;2022-09-14T10:53:05;96881.81;;;10.32;76.58
68141;BME280;54941;52.220;104.306;2022-09-14T10:55:59;96890.72;;;10.29;76.70
68141;BME280;54941;52.220;104.306;2022-09-14T10:59:00;96879.66;;;10.35;77.51
68141;BME280;54941;52.220;104.306;2022-09-14T11:05:08;96879.63;;;10.29;77.29
68141;BME280;54941;52.220;104.306;2022-09-14T11:08:07;96885.13;;;10.19;77.54
68141;BME280;54941;52.220;104.306;2022-09-14T11:11:08;96876.22;;;10.21;77.53
68141;BME280;54941;52.220;104.306;2022-09-14T11:17:44;96875.38;;;10.14;77.75
68141;BME280;54941;52.220;104.306;2022-09-14T11:20:40;96883.09;;;10.14;78.28
68141;BME280;54941;52.220;104.306;2022-09-14T11:23:37;96883.63;;;10.10;78.14
68141;BME280;54941;52.220;104.306;2022-09-14T11:26:31;96884.03;;;10.07;78.48
68141;BME280;54941;52.220;104.306;2022-09-14T11:29:21;96877.84;;;10.01;78.75
68141;BME280;54941;52.220;104.306;2022-09-14T11:32:11;96874.41;;;9.94;78.66
68141;BME280;54941;52.220;104.306;2022-09-14T11:35:02;96876.56;;;9.91;79.32
68141;BME280;54941;52.220;104.306;2022-09-14T11:37:52;96873.56;;;9.87;79.49
68141;BME280;54941;52.220;104.306;2022-09-14T11:40:42;96870.59;;;9.84;79.70
68141;BME280;54941;52.220;104.306;2022-09-14T11:43:39;96870.81;;;9.89;79.61
68141;BME280;54941;52.220;104.306;2022-09-14T11:46:30;96869.56;;;9.78;79.85
68141;BME280;54941;52.220;104.306;2022-09-14T11:49:21;96864.59;;;9.76;80.22
68141;BME280;54941;52.220;104.306;2022-09-14T11:52:13;96860.06;;;9.78;79.71
68141;BME280;54941;52.220;104.306;2022-09-14T11:55:02;96853.38;;;9.84;79.05
68141;BME280;54941;52.220;104.306;2022-09-14T11:57:52;96859.66;;;9.75;79.06
68141;BME280;54941;52.220;104.306;2022-09-14T12:01:23;96858.59;;;9.69;79.01
68141;BME280;54941;52.220;104.306;2022-09-14T12:04:14;96854.22;;;9.63;78.29
68141;BME280;54941;52.220;104.306;2022-09-14T12:06:59;96858.19;;;9.66;78.82
68141;BME280;54941;52.220;104.306;2022-09-14T12:09:44;96858.72;;;9.61;78.55
68141;BME280;54941;52.220;104.306;2022-09-14T12:12:32;96863.47;;;9.58;78.76
68141;BME280;54941;52.220;104.306;2022-09-14T12:15:31;96857.34;;;9.59;78.09
68141;BME280;54941;52.220;104.306;2022-09-14T12:18:26;96868.81;;;9.56;78.11
68141;BME280;54941;52.220;104.306;2022-09-14T12:21:24;96872.72;;;9.52;77.76
68141;BME280;54941;52.220;104.306;2022-09-14T12:24:13;96867.03;;;9.57;77.86
68141;BME280;54941;52.220;104.306;2022-09-14T12:27:14;96860.25;;;9.49;78.51
68141;BME280;54941;52.220;104.306;2022-09-14T12:29:59;96872.72;;;9.52;78.02
68141;BME280;54941;52.220;104.306;2022-09-14T12:32:44;96869.91;;;9.47;78.45
68141;BME280;54941;52.220;104.306;2022-09-14T12:35:44;96860.97;;;9.43;77.54
68141;BME280;54941;52.220;104.306;2022-09-14T12:38:40;96859.94;;;9.38;77.54
68141;BME280;54941;52.220;104.306;2022-09-14T12:41:59;96861.47;;;9.32;77.10
68141;BME280;54941;52.220;104.306;2022-09-14T12:44:44;96865.22;;;9.29;77.38
68141;BME280;54941;52.220;104.306;2022-09-14T12:47:49;96873.47;;;9.25;77.45
68141;BME280;54941;52.220;104.306;2022-09-14T12:50:34;96875.88;;;9.26;77.50
68141;BME280;54941;52.220;104.306;2022-09-14T12:53:28;96873.84;;;9.22;77.32
68141;BME280;54941;52.220;104.306;2022-09-14T12:56:19;96879.91;;;9.14;77.85
68141;BME280;54941;52.220;104.306;2022-09-14T12:59:08;96869.44;;;9.16;77.58
68141;BME280;54941;52.220;104.306;2022-09-14T13:02:00;96872.56;;;9.11;77.66
68141;BME280;54941;52.220;104.306;2022-09-14T13:04:52;96870.72;;;9.05;78.59
68141;BME280;54941;52.220;104.306;2022-09-14T13:07:38;96874.81;;;9.00;79.57
68141;BME280;54941;52.220;104.306;2022-09-14T13:10:28;96886.44;;;8.96;78.82
68141;BME280;54941;52.220;104.306;2022-09-14T13:13:16;96880.31;;;8.97;78.44
68141;BME280;54941;52.220;104.306;2022-09-14T13:16:04;96878.34;;;8.99;78.49
68141;BME280;54941;52.220;104.306;2022-09-14T13:18:59;96883.25;;;8.94;78.47
68141;BME280;54941;52.220;104.306;2022-09-14T13:21:45;96878.22;;;8.86;79.27
68141;BME280;54941;52.220;104.306;2022-09-14T13:24:35;96882.28;;;8.80;80.25
68141;BME280;54941;52.220;104.306;2022-09-14T13:27:24;96881.41;;;8.73;80.42
68141;BME280;54941;52.220;104.306;2022-09-14T13:30:18;96882.69;;;8.62;82.02
68141;BME280;54941;52.220;104.306;2022-09-14T13:33:04;96865.53;;;8.48;82.87
68141;BME280;54941;52.220;104.306;2022-09-14T13:35:50;96871.03;;;8.45;82.34
68141;BME280;54941;52.220;104.306;2022-09-14T13:38:36;96873.59;;;8.30;83.02
68141;BME280;54941;52.220;104.306;2022-09-14T13:41:22;96864.28;;;8.29;83.79
68141;BME280;54941;52.220;104.306;2022-09-14T13:44:10;96862.84;;;8.27;84.50
68141;BME280;54941;52.220;104.306;2022-09-14T13:46:57;96865.44;;;8.12;85.58
68141;BME280;54941;52.220;104.306;2022-09-14T13:49:43;96878.50;;;7.88;86.66
68141;BME280;54941;52.220;104.306;2022-09-14T13:52:33;96873.59;;;7.64;88.65
68141;BME280;54941;52.220;104.306;2022-09-14T13:55:25;96871.84;;;7.42;89.62
68141;BME280;54941;52.220;104.306;2022-09-14T13:58:13;96868.09;;;7.29;90.86
68141;BME280;54941;52.220;104.306;2022-09-14T14:01:01;96864.13;;;7.27;91.01
68141;BME280;54941;52.220;104.306;2022-09-14T14:03:48;96858.88;;;7.20;91.67
68141;BME280;54941;52.220;104.306;2022-09-14T14:06:34;96861.16;;;7.15;91.93
68141;BME280;54941;52.220;104.306;2022-09-14T14:09:19;96855.91;;;7.09;92.44
68141;BME280;54941;52.220;104.306;2022-09-14T14:12:04;96855.66;;;6.96;93.06
68141;BME280;54941;52.220;104.306;2022-09-14T14:14:57;96852.31;;;6.95;94.05
68141;BME280;54941;52.220;104.306;2022-09-14T14:17:44;96857.16;;;6.90;94.05
68141;BME280;54941;52.220;104.306;2022-09-14T14:20:34;96858.72;;;6.91;94.01
68141;BME280;54941;52.220;104.306;2022-09-14T14:23:20;96845.16;;;6.91;94.30
68141;BME280;54941;52.220;104.306;2022-09-14T14:26:07;96855.72;;;6.88;94.08
68141;BME280;54941;52.220;104.306;2022-09-14T14:28:54;96845.84;;;6.76;94.03
68141;BME280;54941;52.220;104.306;2022-09-14T14:31:38;96851.50;;;6.72;94.50
68141;BME280;54941;52.220;104.306;2022-09-14T14:34:26;96844.47;;;6.66;95.35
68141;BME280;54941;52.220;104.306;2022-09-14T14:37:11;96844.34;;;6.59;95.33
68141;BME280;54941;52.220;104.306;2022-09-14T14:39:56;96837.72;;;6.42;94.80
68141;BME280;54941;52.220;104.306;2022-09-14T14:42:41;96835.66;;;6.38;95.25